sensor_id;sensor_type;location;lat;lon;timestamp;P1;durP1;ratioP1;P2;durP2;ratioP2
56161;SDS011;42045;52.986;6.014;2022-07-23T00:00:38;7.38;;;6.38;;
56161;SDS011;42045;52.986;6.014;2022-07-23T00:03:06;7.72;;;6.35;;
56161;SDS011;42045;52.986;6.014;2022-07-23T00:05:32;7.15;;;6.18;;
56161;SDS011;42045;52.986;6.014;2022-07-23T00:08:00;7.22;;;5.50;;
56161;SDS011;42045;52.986;6.014;2022-07-23T00:10:27;5.40;;;4.90;;
56161;SDS011;42045;52.986;6.014;2022-07-23T00:12:56;6.97;;;4.55;;
56161;SDS011;42045;52.986;6.014;2022-07-23T00:15:25;5.68;;;4.28;;
56161;SDS011;42045;52.986;6.014;2022-07-23T00:17:52;6.38;;;4.45;;
56161;SDS011;42045;52.986;6.014;2022-07-23T00:20:20;4.72;;;3.95;;
56161;SDS011;42045;52.986;6.014;2022-07-23T00:22:47;4.95;;;4.10;;
56161;SDS011;42045;52.986;6.014;2022-07-23T00:25:35;5.10;;;4.60;;
56161;SDS011;42045;52.986;6.014;2022-07-23T00:28:02;6.70;;;4.72;;
56161;SDS011;42045;52.986;6.014;2022-07-23T00:30:29;6.43;;;4.88;;
56161;SDS011;42045;52.986;6.014;2022-07-23T00:32:58;6.03;;;5.13;;
56161;SDS011;42045;52.986;6.014;2022-07-23T00:35:29;7.07;;;5.57;;
56161;SDS011;42045;52.986;6.014;2022-07-23T00:37:58;10.15;;;5.82;;
56161;SDS011;42045;52.986;6.014;2022-07-23T00:40:25;6.55;;;5.95;;
56161;SDS011;42045;52.986;6.014;2022-07-23T00:42:52;6.03;;;4.28;;
56161;SDS011;42045;52.986;6.014;2022-07-23T00:45:20;6.82;;;4.53;;
56161;SDS011;42045;52.986;6.014;2022-07-23T00:47:50;5.38;;;4.88;;
56161;SDS011;42045;52.986;6.014;2022-07-23T00:50:17;5.03;;;3.97;;
56161;SDS011;42045;52.986;6.014;2022-07-23T00:52:43;4.15;;;3.55;;
56161;SDS011;42045;52.986;6.014;2022-07-23T00:55:11;4.00;;;3.60;;
56161;SDS011;42045;52.986;6.014;2022-07-23T00:57:41;5.50;;;3.95;;
56161;SDS011;42045;52.986;6.014;2022-07-23T01:00:09;4.88;;;3.78;;
56161;SDS011;42045;52.986;6.014;2022-07-23T01:02:39;6.35;;;4.78;;
56161;SDS011;42045;52.986;6.014;2022-07-23T01:05:07;5.60;;;5.03;;
56161;SDS011;42045;52.986;6.014;2022-07-23T01:07:36;5.97;;;5.38;;
56161;SDS011;42045;52.986;6.014;2022-07-23T01:10:06;4.82;;;3.58;;
56161;SDS011;42045;52.986;6.014;2022-07-23T01:12:54;5.32;;;2.65;;
56161;SDS011;42045;52.986;6.014;2022-07-23T01:15:22;3.03;;;2.55;;
56161;SDS011;42045;52.986;6.014;2022-07-23T01:17:50;5.53;;;2.75;;
56161;SDS011;42045;52.986;6.014;2022-07-23T01:20:17;4.00;;;2.88;;
56161;SDS011;42045;52.986;6.014;2022-07-23T01:22:46;6.75;;;4.20;;
56161;SDS011;42045;52.986;6.014;2022-07-23T01:25:13;5.63;;;4.50;;
56161;SDS011;42045;52.986;6.014;2022-07-23T01:27:44;7.43;;;5.63;;
56161;SDS011;42045;52.986;6.014;2022-07-23T01:30:12;4.93;;;4.43;;
56161;SDS011;42045;52.986;6.014;2022-07-23T01:32:39;4.22;;;3.70;;
56161;SDS011;42045;52.986;6.014;2022-07-23T01:35:12;5.68;;;4.63;;
56161;SDS011;42045;52.986;6.014;2022-07-23T01:37:48;6.22;;;5.28;;
56161;SDS011;42045;52.986;6.014;2022-07-23T01:40:15;7.28;;;5.38;;
56161;SDS011;42045;52.986;6.014;2022-07-23T01:42:42;6.55;;;5.60;;
56161;SDS011;42045;52.986;6.014;2022-07-23T01:45:09;7.63;;;4.68;;
56161;SDS011;42045;52.986;6.014;2022-07-23T01:47:36;4.18;;;3.40;;
56161;SDS011;42045;52.986;6.014;2022-07-23T01:50:05;5.40;;;3.13;;
56161;SDS011;42045;52.986;6.014;2022-07-23T01:52:33;3.50;;;2.70;;
56161;SDS011;42045;52.986;6.014;2022-07-23T01:55:01;3.40;;;2.72;;
56161;SDS011;42045;52.986;6.014;2022-07-23T01:57:31;3.08;;;2.50;;
56161;SDS011;42045;52.986;6.014;2022-07-23T01:59:59;3.35;;;3.03;;
56161;SDS011;42045;52.986;6.014;2022-07-23T02:02:25;4.40;;;2.90;;
56161;SDS011;42045;52.986;6.014;2022-07-23T02:04:51;4.70;;;3.58;;
56161;SDS011;42045;52.986;6.014;2022-07-23T02:07:18;4.53;;;3.65;;
56161;SDS011;42045;52.986;6.014;2022-07-23T02:09:44;7.03;;;4.47;;
56161;SDS011;42045;52.986;6.014;2022-07-23T02:12:12;9.40;;;5.80;;
56161;SDS011;42045;52.986;6.014;2022-07-23T02:14:40;7.38;;;5.78;;
56161;SDS011;42045;52.986;6.014;2022-07-23T02:17:07;8.63;;;6.50;;
56161;SDS011;42045;52.986;6.014;2022-07-23T02:19:39;7.47;;;6.35;;
56161;SDS011;42045;52.986;6.014;2022-07-23T02:22:06;6.22;;;4.78;;
56161;SDS011;42045;52.986;6.014;2022-07-23T02:24:32;5.40;;;3.95;;
56161;SDS011;42045;52.986;6.014;2022-07-23T02:26:58;8.32;;;5.38;;
56161;SDS011;42045;52.986;6.014;2022-07-23T02:29:25;5.40;;;4.85;;
56161;SDS011;42045;52.986;6.014;2022-07-23T02:31:52;4.05;;;3.58;;
56161;SDS011;42045;52.986;6.014;2022-07-23T02:34:22;2.50;;;2.30;;
56161;SDS011;42045;52.986;6.014;2022-07-23T02:36:48;5.82;;;3.33;;
56161;SDS011;42045;52.986;6.014;2022-07-23T02:39:16;3.85;;;3.55;;
56161;SDS011;42045;52.986;6.014;2022-07-23T02:41:42;4.95;;;3.97;;
56161;SDS011;42045;52.986;6.014;2022-07-23T02:44:09;5.05;;;3.47;;
56161;SDS011;42045;52.986;6.014;2022-07-23T02:46:36;4.30;;;3.22;;
56161;SDS011;42045;52.986;6.014;2022-07-23T02:49:03;4.20;;;3.80;;
56161;SDS011;42045;52.986;6.014;2022-07-23T02:51:30;7.32;;;3.83;;
56161;SDS011;42045;52.986;6.014;2022-07-23T02:53:58;3.88;;;3.30;;
56161;SDS011;42045;52.986;6.014;2022-07-23T02:56:27;4.93;;;3.25;;
56161;SDS011;42045;52.986;6.014;2022-07-23T02:58:54;4.07;;;3.50;;
56161;SDS011;42045;52.986;6.014;2022-07-23T03:01:21;4.57;;;3.90;;
56161;SDS011;42045;52.986;6.014;2022-07-23T03:03:53;4.85;;;3.58;;
56161;SDS011;42045;52.986;6.014;2022-07-23T03:06:20;4.53;;;3.30;;
56161;SDS011;42045;52.986;6.014;2022-07-23T03:08:53;3.67;;;2.60;;
56161;SDS011;42045;52.986;6.014;2022-07-23T03:11:22;2.50;;;2.00;;
56161;SDS011;42045;52.986;6.014;2022-07-23T03:13:49;2.20;;;1.90;;
56161;SDS011;42045;52.986;6.014;2022-07-23T03:16:16;5.55;;;1.95;;
56161;SDS011;42045;52.986;6.014;2022-07-23T03:18:47;1.75;;;1.50;;
56161;SDS011;42045;52.986;6.014;2022-07-23T03:21:17;2.55;;;1.48;;
56161;SDS011;42045;52.986;6.014;2022-07-23T03:23:45;1.30;;;1.20;;
56161;SDS011;42045;52.986;6.014;2022-07-23T03:26:14;3.25;;;1.40;;
56161;SDS011;42045;52.986;6.014;2022-07-23T03:28:41;2.00;;;1.30;;
56161;SDS011;42045;52.986;6.014;2022-07-23T03:31:08;1.30;;;1.17;;
56161;SDS011;42045;52.986;6.014;2022-07-23T03:33:35;1.63;;;1.25;;
56161;SDS011;42045;52.986;6.014;2022-07-23T03:36:08;1.17;;;0.93;;
56161;SDS011;42045;52.986;6.014;2022-07-23T03:38:36;3.60;;;1.20;;
56161;SDS011;42045;52.986;6.014;2022-07-23T03:41:10;1.98;;;1.30;;
56161;SDS011;42045;52.986;6.014;2022-07-23T03:43:38;2.08;;;1.20;;
56161;SDS011;42045;52.986;6.014;2022-07-23T03:46:06;2.65;;;1.30;;
56161;SDS011;42045;52.986;6.014;2022-07-23T03:48:33;2.08;;;1.45;;
56161;SDS011;42045;52.986;6.014;2022-07-23T03:50:59;1.85;;;1.60;;
56161;SDS011;42045;52.986;6.014;2022-07-23T03:53:26;2.38;;;1.50;;
56161;SDS011;42045;52.986;6.014;2022-07-23T03:55:56;2.28;;;1.23;;
56161;SDS011;42045;52.986;6.014;2022-07-23T03:58:23;1.80;;;1.10;;
56161;SDS011;42045;52.986;6.014;2022-07-23T04:00:58;3.28;;;1.58;;
56161;SDS011;42045;52.986;6.014;2022-07-23T04:03:28;2.55;;;1.92;;
56161;SDS011;42045;52.986;6.014;2022-07-23T04:05:55;2.03;;;1.55;;
56161;SDS011;42045;52.986;6.014;2022-07-23T04:08:22;1.98;;;1.50;;
56161;SDS011;42045;52.986;6.014;2022-07-23T04:10:53;2.88;;;2.10;;
56161;SDS011;42045;52.986;6.014;2022-07-23T04:13:22;2.37;;;1.80;;
56161;SDS011;42045;52.986;6.014;2022-07-23T04:15:51;7.22;;;1.90;;
56161;SDS011;42045;52.986;6.014;2022-07-23T04:18:18;3.55;;;2.20;;
56161;SDS011;42045;52.986;6.014;2022-07-23T04:20:44;2.60;;;2.15;;
56161;SDS011;42045;52.986;6.014;2022-07-23T04:23:10;3.13;;;2.10;;
56161;SDS011;42045;52.986;6.014;2022-07-23T04:25:36;2.63;;;2.00;;
56161;SDS011;42045;52.986;6.014;2022-07-23T04:28:06;3.08;;;1.60;;
56161;SDS011;42045;52.986;6.014;2022-07-23T04:30:35;6.13;;;2.40;;
56161;SDS011;42045;52.986;6.014;2022-07-23T04:33:10;3.58;;;2.50;;
56161;SDS011;42045;52.986;6.014;2022-07-23T04:35:38;6.22;;;2.83;;
56161;SDS011;42045;52.986;6.014;2022-07-23T04:38:04;5.68;;;3.42;;
56161;SDS011;42045;52.986;6.014;2022-07-23T04:40:30;4.95;;;3.30;;
56161;SDS011;42045;52.986;6.014;2022-07-23T04:42:57;3.90;;;3.17;;
56161;SDS011;42045;52.986;6.014;2022-07-23T04:45:24;4.40;;;2.67;;
56161;SDS011;42045;52.986;6.014;2022-07-23T04:48:00;6.43;;;3.22;;
56161;SDS011;42045;52.986;6.014;2022-07-23T04:50:26;5.90;;;3.00;;
56161;SDS011;42045;52.986;6.014;2022-07-23T04:52:54;11.43;;;3.40;;
56161;SDS011;42045;52.986;6.014;2022-07-23T04:55:21;6.88;;;3.75;;
56161;SDS011;42045;52.986;6.014;2022-07-23T04:57:47;3.85;;;3.25;;
56161;SDS011;42045;52.986;6.014;2022-07-23T05:00:15;4.38;;;2.90;;
56161;SDS011;42045;52.986;6.014;2022-07-23T05:02:42;5.63;;;3.45;;
56161;SDS011;42045;52.986;6.014;2022-07-23T05:05:09;5.45;;;3.55;;
56161;SDS011;42045;52.986;6.014;2022-07-23T05:07:39;4.70;;;3.60;;
56161;SDS011;42045;52.986;6.014;2022-07-23T05:10:06;3.60;;;3.30;;
56161;SDS011;42045;52.986;6.014;2022-07-23T05:12:33;5.15;;;3.78;;
56161;SDS011;42045;52.986;6.014;2022-07-23T05:14:59;5.75;;;3.25;;
56161;SDS011;42045;52.986;6.014;2022-07-23T05:17:26;4.82;;;3.58;;
56161;SDS011;42045;52.986;6.014;2022-07-23T05:19:53;4.68;;;3.53;;
56161;SDS011;42045;52.986;6.014;2022-07-23T05:22:20;5.00;;;3.85;;
56161;SDS011;42045;52.986;6.014;2022-07-23T05:24:47;5.47;;;3.92;;
56161;SDS011;42045;52.986;6.014;2022-07-23T05:27:16;5.03;;;4.05;;
56161;SDS011;42045;52.986;6.014;2022-07-23T05:29:43;4.68;;;4.28;;
56161;SDS011;42045;52.986;6.014;2022-07-23T05:32:10;6.05;;;4.68;;
56161;SDS011;42045;52.986;6.014;2022-07-23T05:34:38;6.13;;;4.47;;
56161;SDS011;42045;52.986;6.014;2022-07-23T05:37:06;7.57;;;4.70;;
56161;SDS011;42045;52.986;6.014;2022-07-23T05:39:35;5.20;;;4.70;;
56161;SDS011;42045;52.986;6.014;2022-07-23T05:42:01;5.05;;;4.30;;
56161;SDS011;42045;52.986;6.014;2022-07-23T05:44:30;5.35;;;4.85;;
56161;SDS011;42045;52.986;6.014;2022-07-23T05:46:57;4.68;;;3.97;;
56161;SDS011;42045;52.986;6.014;2022-07-23T05:49:23;5.47;;;4.15;;
56161;SDS011;42045;52.986;6.014;2022-07-23T05:51:55;7.00;;;3.78;;
56161;SDS011;42045;52.986;6.014;2022-07-23T05:54:26;7.10;;;3.72;;
56161;SDS011;42045;52.986;6.014;2022-07-23T05:56:53;5.38;;;3.38;;
56161;SDS011;42045;52.986;6.014;2022-07-23T05:59:21;4.93;;;3.45;;
56161;SDS011;42045;52.986;6.014;2022-07-23T06:01:49;6.65;;;3.65;;
56161;SDS011;42045;52.986;6.014;2022-07-23T06:04:17;6.35;;;3.70;;
56161;SDS011;42045;52.986;6.014;2022-07-23T06:06:52;5.35;;;3.20;;
56161;SDS011;42045;52.986;6.014;2022-07-23T06:09:21;6.20;;;2.38;;
56161;SDS011;42045;52.986;6.014;2022-07-23T06:11:51;3.95;;;2.17;;
56161;SDS011;42045;52.986;6.014;2022-07-23T06:14:20;3.90;;;2.20;;
56161;SDS011;42045;52.986;6.014;2022-07-23T06:16:51;4.85;;;2.85;;
56161;SDS011;42045;52.986;6.014;2022-07-23T06:19:17;7.13;;;2.50;;
56161;SDS011;42045;52.986;6.014;2022-07-23T06:21:47;2.78;;;2.00;;
56161;SDS011;42045;52.986;6.014;2022-07-23T06:24:14;7.43;;;2.42;;
56161;SDS011;42045;52.986;6.014;2022-07-23T06:26:55;4.32;;;2.30;;
56161;SDS011;42045;52.986;6.014;2022-07-23T06:29:22;3.58;;;1.77;;
56161;SDS011;42045;52.986;6.014;2022-07-23T06:31:51;2.92;;;1.33;;
56161;SDS011;42045;52.986;6.014;2022-07-23T06:34:21;3.30;;;1.17;;
56161;SDS011;42045;52.986;6.014;2022-07-23T06:36:49;5.57;;;1.60;;
56161;SDS011;42045;52.986;6.014;2022-07-23T06:39:16;2.97;;;1.42;;
56161;SDS011;42045;52.986;6.014;2022-07-23T06:41:44;1.38;;;1.23;;
56161;SDS011;42045;52.986;6.014;2022-07-23T06:44:11;2.97;;;1.20;;
56161;SDS011;42045;52.986;6.014;2022-07-23T06:46:40;3.50;;;1.50;;
56161;SDS011;42045;52.986;6.014;2022-07-23T06:49:08;3.13;;;1.10;;
56161;SDS011;42045;52.986;6.014;2022-07-23T06:51:34;3.50;;;1.00;;
56161;SDS011;42045;52.986;6.014;2022-07-23T06:54:02;1.85;;;1.10;;
56161;SDS011;42045;52.986;6.014;2022-07-23T06:56:39;2.28;;;1.10;;
56161;SDS011;42045;52.986;6.014;2022-07-23T06:59:06;2.35;;;1.15;;
56161;SDS011;42045;52.986;6.014;2022-07-23T07:01:35;1.77;;;1.25;;
56161;SDS011;42045;52.986;6.014;2022-07-23T07:04:03;2.13;;;1.13;;
56161;SDS011;42045;52.986;6.014;2022-07-23T07:06:29;2.95;;;0.95;;
56161;SDS011;42045;52.986;6.014;2022-07-23T07:08:55;1.60;;;0.80;;
56161;SDS011;42045;52.986;6.014;2022-07-23T07:11:24;1.15;;;0.85;;
56161;SDS011;42045;52.986;6.014;2022-07-23T07:13:57;1.33;;;0.70;;
56161;SDS011;42045;52.986;6.014;2022-07-23T07:16:24;0.73;;;0.70;;
56161;SDS011;42045;52.986;6.014;2022-07-23T07:18:51;1.38;;;0.77;;
56161;SDS011;42045;52.986;6.014;2022-07-23T07:21:19;1.77;;;0.80;;
56161;SDS011;42045;52.986;6.014;2022-07-23T07:23:58;2.55;;;0.73;;
56161;SDS011;42045;52.986;6.014;2022-07-23T07:26:26;2.92;;;1.05;;
56161;SDS011;42045;52.986;6.014;2022-07-23T07:28:58;1.40;;;0.90;;
56161;SDS011;42045;52.986;6.014;2022-07-23T07:31:27;2.63;;;0.80;;
56161;SDS011;42045;52.986;6.014;2022-07-23T07:33:54;0.98;;;0.73;;
56161;SDS011;42045;52.986;6.014;2022-07-23T07:36:22;2.90;;;0.77;;
56161;SDS011;42045;52.986;6.014;2022-07-23T07:38:51;3.10;;;0.90;;
56161;SDS011;42045;52.986;6.014;2022-07-23T07:41:18;1.08;;;0.73;;
56161;SDS011;42045;52.986;6.014;2022-07-23T07:43:50;3.40;;;0.67;;
56161;SDS011;42045;52.986;6.014;2022-07-23T07:46:20;2.00;;;0.85;;
56161;SDS011;42045;52.986;6.014;2022-07-23T07:48:49;3.22;;;0.80;;
56161;SDS011;42045;52.986;6.014;2022-07-23T07:51:16;2.67;;;0.75;;
56161;SDS011;42045;52.986;6.014;2022-07-23T07:53:45;2.30;;;0.75;;
56161;SDS011;42045;52.986;6.014;2022-07-23T07:56:12;2.72;;;0.90;;
56161;SDS011;42045;52.986;6.014;2022-07-23T07:58:42;1.80;;;0.80;;
56161;SDS011;42045;52.986;6.014;2022-07-23T08:01:09;2.70;;;1.23;;
56161;SDS011;42045;52.986;6.014;2022-07-23T08:03:35;1.58;;;0.80;;
56161;SDS011;42045;52.986;6.014;2022-07-23T08:06:11;1.63;;;0.80;;
56161;SDS011;42045;52.986;6.014;2022-07-23T08:08:42;3.45;;;0.85;;
56161;SDS011;42045;52.986;6.014;2022-07-23T08:11:09;4.03;;;0.80;;
56161;SDS011;42045;52.986;6.014;2022-07-23T08:13:36;2.65;;;1.15;;
56161;SDS011;42045;52.986;6.014;2022-07-23T08:16:05;2.90;;;0.80;;
56161;SDS011;42045;52.986;6.014;2022-07-23T08:18:32;3.00;;;1.00;;
56161;SDS011;42045;52.986;6.014;2022-07-23T08:20:58;1.17;;;0.80;;
56161;SDS011;42045;52.986;6.014;2022-07-23T08:23:25;1.70;;;0.75;;
56161;SDS011;42045;52.986;6.014;2022-07-23T08:25:53;1.35;;;0.90;;
56161;SDS011;42045;52.986;6.014;2022-07-23T08:28:25;1.48;;;0.75;;
56161;SDS011;42045;52.986;6.014;2022-07-23T08:30:54;0.88;;;0.70;;
56161;SDS011;42045;52.986;6.014;2022-07-23T08:33:23;2.78;;;0.95;;
56161;SDS011;42045;52.986;6.014;2022-07-23T08:35:54;2.13;;;1.10;;
56161;SDS011;42045;52.986;6.014;2022-07-23T08:38:22;2.13;;;0.80;;
56161;SDS011;42045;52.986;6.014;2022-07-23T08:40:50;1.45;;;1.00;;
56161;SDS011;42045;52.986;6.014;2022-07-23T08:43:19;2.15;;;0.88;;
56161;SDS011;42045;52.986;6.014;2022-07-23T08:45:54;1.60;;;0.90;;
56161;SDS011;42045;52.986;6.014;2022-07-23T08:48:25;1.95;;;0.90;;
56161;SDS011;42045;52.986;6.014;2022-07-23T08:50:57;1.33;;;0.88;;
56161;SDS011;42045;52.986;6.014;2022-07-23T08:53:28;1.27;;;0.95;;
56161;SDS011;42045;52.986;6.014;2022-07-23T08:55:59;1.33;;;1.08;;
56161;SDS011;42045;52.986;6.014;2022-07-23T08:58:29;2.00;;;0.90;;
56161;SDS011;42045;52.986;6.014;2022-07-23T09:00:57;1.40;;;1.00;;
56161;SDS011;42045;52.986;6.014;2022-07-23T09:03:29;3.20;;;1.10;;
56161;SDS011;42045;52.986;6.014;2022-07-23T09:05:57;1.50;;;1.08;;
56161;SDS011;42045;52.986;6.014;2022-07-23T09:08:36;2.92;;;1.10;;
56161;SDS011;42045;52.986;6.014;2022-07-23T09:11:16;2.55;;;1.05;;
56161;SDS011;42045;52.986;6.014;2022-07-23T09:13:53;2.28;;;1.02;;
56161;SDS011;42045;52.986;6.014;2022-07-23T09:16:29;3.10;;;0.93;;
56161;SDS011;42045;52.986;6.014;2022-07-23T09:18:58;2.45;;;0.90;;
56161;SDS011;42045;52.986;6.014;2022-07-23T09:21:54;1.52;;;0.80;;
56161;SDS011;42045;52.986;6.014;2022-07-23T09:27:57;1.92;;;1.00;;
56161;SDS011;42045;52.986;6.014;2022-07-23T09:30:31;1.95;;;0.88;;
56161;SDS011;42045;52.986;6.014;2022-07-23T09:33:12;2.40;;;1.10;;
56161;SDS011;42045;52.986;6.014;2022-07-23T09:35:46;3.63;;;1.10;;
56161;SDS011;42045;52.986;6.014;2022-07-23T09:38:22;2.08;;;1.13;;
56161;SDS011;42045;52.986;6.014;2022-07-23T09:41:09;3.42;;;1.20;;
56161;SDS011;42045;52.986;6.014;2022-07-23T09:43:39;4.20;;;1.42;;
56161;SDS011;42045;52.986;6.014;2022-07-23T09:46:22;4.93;;;1.10;;
56161;SDS011;42045;52.986;6.014;2022-07-23T09:48:54;3.60;;;1.35;;
56161;SDS011;42045;52.986;6.014;2022-07-23T09:51:23;2.90;;;1.40;;
56161;SDS011;42045;52.986;6.014;2022-07-23T09:54:01;3.90;;;1.30;;
56161;SDS011;42045;52.986;6.014;2022-07-23T09:56:28;2.08;;;1.25;;
56161;SDS011;42045;52.986;6.014;2022-07-23T09:58:55;2.45;;;1.20;;
56161;SDS011;42045;52.986;6.014;2022-07-23T10:01:39;1.42;;;1.30;;
56161;SDS011;42045;52.986;6.014;2022-07-23T10:04:05;3.00;;;1.42;;
56161;SDS011;42045;52.986;6.014;2022-07-23T10:06:40;3.15;;;1.33;;
56161;SDS011;42045;52.986;6.014;2022-07-23T10:09:09;2.58;;;1.42;;
56161;SDS011;42045;52.986;6.014;2022-07-23T10:14:09;2.15;;;1.30;;
56161;SDS011;42045;52.986;6.014;2022-07-23T10:16:36;3.00;;;1.30;;
56161;SDS011;42045;52.986;6.014;2022-07-23T10:19:09;3.63;;;1.65;;
56161;SDS011;42045;52.986;6.014;2022-07-23T10:21:46;2.58;;;1.15;;
56161;SDS011;42045;52.986;6.014;2022-07-23T10:24:28;2.13;;;1.30;;
56161;SDS011;42045;52.986;6.014;2022-07-23T10:38:48;2.08;;;1.42;;
56161;SDS011;42045;52.986;6.014;2022-07-23T10:41:36;3.67;;;1.52;;
56161;SDS011;42045;52.986;6.014;2022-07-23T10:44:16;2.70;;;1.55;;
56161;SDS011;42045;52.986;6.014;2022-07-23T10:47:02;4.72;;;1.70;;
56161;SDS011;42045;52.986;6.014;2022-07-23T10:49:35;2.92;;;1.70;;
56161;SDS011;42045;52.986;6.014;2022-07-23T10:54:55;2.80;;;1.40;;
56161;SDS011;42045;52.986;6.014;2022-07-23T10:57:27;4.13;;;1.60;;
56161;SDS011;42045;52.986;6.014;2022-07-23T11:00:11;3.17;;;2.17;;
56161;SDS011;42045;52.986;6.014;2022-07-23T11:02:42;3.58;;;1.80;;
56161;SDS011;42045;52.986;6.014;2022-07-23T11:05:16;2.28;;;1.73;;
56161;SDS011;42045;52.986;6.014;2022-07-23T11:10:53;2.38;;;1.67;;
56161;SDS011;42045;52.986;6.014;2022-07-23T11:13:41;2.70;;;1.60;;
56161;SDS011;42045;52.986;6.014;2022-07-23T11:16:12;2.75;;;1.73;;
56161;SDS011;42045;52.986;6.014;2022-07-23T11:34:53;5.03;;;1.98;;
56161;SDS011;42045;52.986;6.014;2022-07-23T11:40:29;3.72;;;1.85;;
56161;SDS011;42045;52.986;6.014;2022-07-23T11:43:08;3.00;;;1.67;;
56161;SDS011;42045;52.986;6.014;2022-07-23T11:45:46;4.55;;;1.80;;
56161;SDS011;42045;52.986;6.014;2022-07-23T11:48:18;2.58;;;1.63;;
56161;SDS011;42045;52.986;6.014;2022-07-23T11:50:50;3.55;;;2.33;;
56161;SDS011;42045;52.986;6.014;2022-07-23T11:53:22;3.95;;;2.92;;
56161;SDS011;42045;52.986;6.014;2022-07-23T11:55:49;3.88;;;2.92;;
56161;SDS011;42045;52.986;6.014;2022-07-23T11:58:25;3.38;;;1.90;;
56161;SDS011;42045;52.986;6.014;2022-07-23T12:00:54;3.53;;;2.20;;
56161;SDS011;42045;52.986;6.014;2022-07-23T12:03:21;3.95;;;2.20;;
56161;SDS011;42045;52.986;6.014;2022-07-23T12:05:55;3.92;;;2.00;;
56161;SDS011;42045;52.986;6.014;2022-07-23T12:08:27;3.55;;;1.88;;
56161;SDS011;42045;52.986;6.014;2022-07-23T12:11:01;2.88;;;2.00;;
56161;SDS011;42045;52.986;6.014;2022-07-23T12:13:28;4.32;;;2.25;;
56161;SDS011;42045;52.986;6.014;2022-07-23T12:15:56;3.45;;;2.13;;
56161;SDS011;42045;52.986;6.014;2022-07-23T12:18:24;6.45;;;2.50;;
56161;SDS011;42045;52.986;6.014;2022-07-23T12:21:02;3.35;;;2.05;;
56161;SDS011;42045;52.986;6.014;2022-07-23T12:23:31;3.28;;;2.58;;
56161;SDS011;42045;52.986;6.014;2022-07-23T12:26:00;3.75;;;2.05;;
56161;SDS011;42045;52.986;6.014;2022-07-23T12:28:32;4.53;;;2.30;;
56161;SDS011;42045;52.986;6.014;2022-07-23T12:31:01;5.03;;;2.30;;
56161;SDS011;42045;52.986;6.014;2022-07-23T12:33:32;4.10;;;2.35;;
56161;SDS011;42045;52.986;6.014;2022-07-23T12:36:02;3.78;;;2.20;;
56161;SDS011;42045;52.986;6.014;2022-07-23T12:38:44;6.40;;;3.20;;
56161;SDS011;42045;52.986;6.014;2022-07-23T12:41:18;3.85;;;2.65;;
56161;SDS011;42045;52.986;6.014;2022-07-23T12:43:47;3.60;;;2.50;;
56161;SDS011;42045;52.986;6.014;2022-07-23T12:48:54;2.38;;;2.00;;
56161;SDS011;42045;52.986;6.014;2022-07-23T12:51:27;4.70;;;2.17;;
56161;SDS011;42045;52.986;6.014;2022-07-23T12:53:56;3.15;;;2.30;;
56161;SDS011;42045;52.986;6.014;2022-07-23T12:56:32;2.97;;;2.22;;
56161;SDS011;42045;52.986;6.014;2022-07-23T12:59:07;5.22;;;2.30;;
56161;SDS011;42045;52.986;6.014;2022-07-23T13:01:41;4.32;;;2.38;;
56161;SDS011;42045;52.986;6.014;2022-07-23T13:06:47;3.95;;;2.25;;
56161;SDS011;42045;52.986;6.014;2022-07-23T13:09:15;3.28;;;2.33;;
56161;SDS011;42045;52.986;6.014;2022-07-23T13:11:44;4.55;;;2.97;;
56161;SDS011;42045;52.986;6.014;2022-07-23T13:14:11;3.67;;;2.08;;
56161;SDS011;42045;52.986;6.014;2022-07-23T13:16:39;5.03;;;2.42;;
56161;SDS011;42045;52.986;6.014;2022-07-23T13:19:11;4.65;;;2.47;;
56161;SDS011;42045;52.986;6.014;2022-07-23T13:21:39;2.58;;;2.13;;
56161;SDS011;42045;52.986;6.014;2022-07-23T13:24:06;2.53;;;2.10;;
56161;SDS011;42045;52.986;6.014;2022-07-23T13:26:39;4.25;;;2.40;;
56161;SDS011;42045;52.986;6.014;2022-07-23T13:29:13;4.20;;;2.38;;
56161;SDS011;42045;52.986;6.014;2022-07-23T13:31:41;5.05;;;2.47;;
56161;SDS011;42045;52.986;6.014;2022-07-23T13:34:08;4.35;;;2.55;;
56161;SDS011;42045;52.986;6.014;2022-07-23T13:36:36;4.45;;;2.25;;
56161;SDS011;42045;52.986;6.014;2022-07-23T13:39:09;7.43;;;2.78;;
56161;SDS011;42045;52.986;6.014;2022-07-23T13:41:39;3.65;;;2.40;;
56161;SDS011;42045;52.986;6.014;2022-07-23T13:44:05;3.58;;;2.40;;
56161;SDS011;42045;52.986;6.014;2022-07-23T13:46:31;3.38;;;2.10;;
56161;SDS011;42045;52.986;6.014;2022-07-23T13:48:58;3.30;;;2.10;;
56161;SDS011;42045;52.986;6.014;2022-07-23T13:51:26;4.43;;;2.70;;
56161;SDS011;42045;52.986;6.014;2022-07-23T13:53:54;4.00;;;2.28;;
56161;SDS011;42045;52.986;6.014;2022-07-23T13:56:24;2.60;;;2.22;;
56161;SDS011;42045;52.986;6.014;2022-07-23T13:58:50;4.55;;;4.05;;
56161;SDS011;42045;52.986;6.014;2022-07-23T14:01:16;3.58;;;2.25;;
56161;SDS011;42045;52.986;6.014;2022-07-23T14:03:46;4.03;;;2.67;;
56161;SDS011;42045;52.986;6.014;2022-07-23T14:06:13;4.82;;;2.10;;
56161;SDS011;42045;52.986;6.014;2022-07-23T14:08:41;4.63;;;2.65;;
56161;SDS011;42045;52.986;6.014;2022-07-23T14:11:13;4.45;;;2.70;;
56161;SDS011;42045;52.986;6.014;2022-07-23T14:13:47;3.85;;;2.60;;
56161;SDS011;42045;52.986;6.014;2022-07-23T14:16:18;3.20;;;2.50;;
56161;SDS011;42045;52.986;6.014;2022-07-23T14:18:45;3.28;;;2.15;;
56161;SDS011;42045;52.986;6.014;2022-07-23T14:21:12;4.70;;;2.30;;
56161;SDS011;42045;52.986;6.014;2022-07-23T14:23:40;4.63;;;2.30;;
56161;SDS011;42045;52.986;6.014;2022-07-23T14:26:14;2.15;;;1.95;;
56161;SDS011;42045;52.986;6.014;2022-07-23T14:28:41;4.18;;;2.33;;
56161;SDS011;42045;52.986;6.014;2022-07-23T14:31:10;3.53;;;1.95;;
56161;SDS011;42045;52.986;6.014;2022-07-23T14:33:37;4.28;;;2.30;;
56161;SDS011;42045;52.986;6.014;2022-07-23T14:36:06;4.65;;;2.25;;
56161;SDS011;42045;52.986;6.014;2022-07-23T14:38:34;7.47;;;3.22;;
56161;SDS011;42045;52.986;6.014;2022-07-23T14:41:00;5.93;;;3.00;;
56161;SDS011;42045;52.986;6.014;2022-07-23T14:43:32;3.28;;;2.80;;
56161;SDS011;42045;52.986;6.014;2022-07-23T14:46:00;3.92;;;2.38;;
56161;SDS011;42045;52.986;6.014;2022-07-23T14:48:27;9.35;;;8.50;;
56161;SDS011;42045;52.986;6.014;2022-07-23T14:50:54;4.47;;;2.75;;
56161;SDS011;42045;52.986;6.014;2022-07-23T14:53:20;3.22;;;2.88;;
56161;SDS011;42045;52.986;6.014;2022-07-23T14:55:47;4.95;;;2.70;;
56161;SDS011;42045;52.986;6.014;2022-07-23T14:58:13;4.10;;;2.10;;
56161;SDS011;42045;52.986;6.014;2022-07-23T15:00:40;2.72;;;2.10;;
56161;SDS011;42045;52.986;6.014;2022-07-23T15:03:09;2.33;;;1.85;;
56161;SDS011;42045;52.986;6.014;2022-07-23T15:05:35;4.60;;;2.05;;
56161;SDS011;42045;52.986;6.014;2022-07-23T15:08:06;5.20;;;2.60;;
56161;SDS011;42045;52.986;6.014;2022-07-23T15:10:35;6.15;;;2.00;;
56161;SDS011;42045;52.986;6.014;2022-07-23T15:13:02;4.03;;;2.28;;
56161;SDS011;42045;52.986;6.014;2022-07-23T15:15:28;4.07;;;2.40;;
56161;SDS011;42045;52.986;6.014;2022-07-23T15:17:59;3.40;;;2.25;;
56161;SDS011;42045;52.986;6.014;2022-07-23T15:20:38;3.17;;;1.90;;
56161;SDS011;42045;52.986;6.014;2022-07-23T15:23:05;3.92;;;2.10;;
56161;SDS011;42045;52.986;6.014;2022-07-23T15:25:39;3.95;;;2.00;;
56161;SDS011;42045;52.986;6.014;2022-07-23T15:28:06;3.85;;;2.30;;
56161;SDS011;42045;52.986;6.014;2022-07-23T15:30:36;3.97;;;2.10;;
56161;SDS011;42045;52.986;6.014;2022-07-23T15:33:05;4.93;;;2.05;;
56161;SDS011;42045;52.986;6.014;2022-07-23T15:35:34;3.38;;;2.10;;
56161;SDS011;42045;52.986;6.014;2022-07-23T15:38:01;6.43;;;2.20;;
56161;SDS011;42045;52.986;6.014;2022-07-23T15:40:29;3.63;;;1.85;;
56161;SDS011;42045;52.986;6.014;2022-07-23T15:42:56;3.55;;;1.92;;
56161;SDS011;42045;52.986;6.014;2022-07-23T15:45:25;4.53;;;2.60;;
56161;SDS011;42045;52.986;6.014;2022-07-23T15:47:51;5.07;;;2.50;;
56161;SDS011;42045;52.986;6.014;2022-07-23T15:50:21;5.10;;;2.90;;